createdAt,value
2018-08-16T00:00:58.470Z,24.78
2018-08-16T00:03:28.778Z,24.80
2018-08-16T00:05:59.037Z,24.83
2018-08-16T00:08:29.393Z,24.94
2018-08-16T00:10:59.758Z,24.91
2018-08-16T00:13:30.073Z,24.76
2018-08-16T00:16:00.655Z,24.79
2018-08-16T00:18:31.013Z,24.68
2018-08-16T00:21:01.545Z,24.57
2018-08-16T00:23:31.796Z,24.71
2018-08-16T00:26:02.141Z,24.89
2018-08-16T00:28:32.385Z,25.02
2018-08-16T00:31:02.661Z,25.01
2018-08-16T00:36:12.817Z,24.52
2018-08-16T00:38:43.322Z,23.47
2018-08-16T00:41:14.197Z,23.43
2018-08-16T00:43:44.487Z,22.99
2018-08-16T00:46:14.873Z,23.32
2018-08-16T00:48:45.153Z,23.73
2018-08-16T00:51:15.481Z,23.82
2018-08-16T00:53:45.781Z,23.59
2018-08-16T00:56:16.217Z,23.27
2018-08-16T00:58:46.452Z,23.38
2018-08-16T01:01:17.032Z,23.55
2018-08-16T01:03:47.630Z,23.71
2018-08-16T01:06:18.193Z,23.50
2018-08-16T01:08:48.802Z,23.66
2018-08-16T01:11:19.529Z,23.56
2018-08-16T01:13:50.161Z,23.59
2018-08-16T01:16:20.481Z,23.90
2018-08-16T01:18:50.786Z,23.59
2018-08-16T01:21:21.112Z,23.90
2018-08-16T01:23:51.454Z,23.59
2018-08-16T01:26:21.844Z,23.49
2018-08-16T01:28:52.289Z,23.57
2018-08-16T01:31:22.605Z,23.51
2018-08-16T01:33:52.987Z,23.53
2018-08-16T01:36:23.298Z,23.60
2018-08-16T01:38:53.589Z,23.60
2018-08-16T01:41:23.942Z,23.68
2018-08-16T01:43:54.552Z,23.73
2018-08-16T01:46:25.385Z,23.55
2018-08-16T01:48:55.908Z,23.65
2018-08-16T01:51:26.633Z,23.61
2018-08-16T01:53:57.278Z,23.66
2018-08-16T01:56:27.653Z,23.54
2018-08-16T01:58:58.323Z,23.63
2018-08-16T02:01:29.021Z,23.70
2018-08-16T02:03:59.741Z,23.33
2018-08-16T02:06:30.521Z,23.44
2018-08-16T02:09:01.100Z,23.11
2018-08-16T02:11:32.069Z,23.13
2018-08-16T02:14:02.913Z,23.14
2018-08-16T02:16:33.753Z,23.14
2018-08-16T02:19:04.453Z,23.20
2018-08-16T02:21:35.240Z,23.11
2018-08-16T02:24:06.002Z,22.94
2018-08-16T02:26:36.818Z,23.13
2018-08-16T02:29:07.457Z,23.20
2018-08-16T02:31:38.033Z,23.01
2018-08-16T02:34:08.411Z,23.06
2018-08-16T02:36:39.156Z,22.91
2018-08-16T02:39:10.953Z,22.95
2018-08-16T02:41:41.871Z,22.94
2018-08-16T02:44:12.609Z,22.93
2018-08-16T02:46:43.489Z,23.05
2018-08-16T02:49:14.234Z,23.01
2018-08-16T02:51:44.549Z,22.92
2018-08-16T02:54:14.761Z,22.92
2018-08-16T02:56:45.109Z,22.89
2018-08-16T02:59:15.421Z,22.90
2018-08-16T03:01:45.740Z,22.69
2018-08-16T03:04:16.354Z,22.85
2018-08-16T03:06:46.904Z,22.64
2018-08-16T03:09:17.528Z,22.70
2018-08-16T03:11:48.161Z,22.82
2018-08-16T03:14:18.797Z,22.89
2018-08-16T03:16:49.682Z,22.43
2018-08-16T03:19:20.367Z,22.52
2018-08-16T03:21:51.085Z,22.50
2018-08-16T03:24:21.778Z,22.22
2018-08-16T03:26:52.660Z,22.37
2018-08-16T03:29:22.912Z,22.45
2018-08-16T03:31:53.413Z,22.71
2018-08-16T03:34:23.699Z,22.73
2018-08-16T03:36:54.237Z,22.77
2018-08-16T03:39:24.485Z,22.68
2018-08-16T03:41:54.759Z,22.30
2018-08-16T03:44:25.037Z,22.35
2018-08-16T03:46:55.344Z,22.28
2018-08-16T03:49:25.916Z,22.39
2018-08-16T03:51:56.169Z,22.55
2018-08-16T03:54:26.469Z,22.52
2018-08-16T03:56:57.522Z,22.55
2018-08-16T03:59:27.777Z,22.68
2018-08-16T04:01:58.052Z,22.82
2018-08-16T04:04:28.377Z,22.76
2018-08-16T04:06:58.735Z,23.01
2018-08-16T04:09:29.041Z,22.78
2018-08-16T04:11:59.778Z,22.81
2018-08-16T04:14:30.029Z,22.82
2018-08-16T04:17:00.551Z,22.92
2018-08-16T04:19:30.853Z,23.29
2018-08-16T04:22:01.211Z,23.57
2018-08-16T04:24:31.449Z,23.47
2018-08-16T04:27:01.921Z,23.26
2018-08-16T04:29:32.211Z,23.86
2018-08-16T04:32:02.626Z,23.67
2018-08-16T04:34:32.917Z,23.62
2018-08-16T04:37:03.350Z,23.67
2018-08-16T04:39:33.769Z,23.51
2018-08-16T04:42:04.044Z,23.56
2018-08-16T04:44:34.329Z,24.27
2018-08-16T04:47:04.950Z,25.54
2018-08-16T04:49:35.179Z,27.03
2018-08-16T04:52:05.919Z,27.02
2018-08-16T04:54:36.205Z,27.28
2018-08-16T04:57:06.562Z,27.31
2018-08-16T04:59:36.949Z,27.58
2018-08-16T05:02:07.276Z,26.90
2018-08-16T05:04:37.569Z,27.79
2018-08-16T05:07:07.828Z,27.64
2018-08-16T05:09:38.098Z,27.80
2018-08-16T05:12:08.607Z,28.06
2018-08-16T05:14:38.833Z,28.78
2018-08-16T05:17:09.357Z,28.94
2018-08-16T05:19:39.973Z,28.45
2018-08-16T05:22:10.257Z,29.39
2018-08-16T05:24:41.520Z,29.68
2018-08-16T05:27:11.809Z,30.22
2018-08-16T05:29:42.212Z,29.51
2018-08-16T05:32:12.574Z,29.38
2018-08-16T05:34:42.941Z,29.66
2018-08-16T05:37:13.250Z,30.00
2018-08-16T05:39:43.616Z,29.84
2018-08-16T05:42:13.933Z,29.86
2018-08-16T05:44:44.265Z,29.63
2018-08-16T05:47:14.812Z,29.12
2018-08-16T05:49:45.119Z,28.42
2018-08-16T05:52:15.528Z,28.66
2018-08-16T05:54:45.753Z,29.75
2018-08-16T05:57:16.160Z,30.41
2018-08-16T05:59:46.496Z,30.05
2018-08-16T06:02:16.905Z,30.11
2018-08-16T06:04:47.242Z,30.01
2018-08-16T06:07:17.673Z,29.74
2018-08-16T06:09:47.904Z,29.78
2018-08-16T06:12:18.260Z,29.49
2018-08-16T06:14:48.521Z,30.02
2018-08-16T06:17:18.988Z,30.06
2018-08-16T06:19:49.290Z,30.79
2018-08-16T06:22:19.688Z,30.69
2018-08-16T06:24:49.977Z,31.06
2018-08-16T06:27:20.472Z,31.58
2018-08-16T06:29:50.780Z,31.31
2018-08-16T06:32:21.059Z,31.34
2018-08-16T06:34:51.357Z,31.06
2018-08-16T06:37:21.609Z,31.98
2018-08-16T06:39:52.345Z,32.51
2018-08-16T06:42:22.658Z,32.21
2018-08-16T06:44:53.241Z,32.21
2018-08-16T06:47:23.500Z,32.48
2018-08-16T06:49:53.825Z,32.80
2018-08-16T06:52:24.159Z,32.52
2018-08-16T06:54:54.588Z,32.43
2018-08-16T06:57:24.914Z,33.57
2018-08-16T06:59:55.260Z,33.66
2018-08-16T07:02:25.780Z,33.19
2018-08-16T07:04:56.543Z,32.73
2018-08-16T07:07:27.141Z,33.48
2018-08-16T07:09:57.446Z,33.26
2018-08-16T07:12:28.085Z,33.45
2018-08-16T07:14:58.349Z,33.84
2018-08-16T07:17:29.158Z,34.41
2018-08-16T07:19:59.440Z,34.87
2018-08-16T07:22:29.884Z,34.87
2018-08-16T07:25:00.238Z,34.18
2018-08-16T07:27:30.594Z,34.83
2018-08-16T07:30:01.188Z,35.07
2018-08-16T07:32:31.782Z,35.37
2018-08-16T07:35:02.057Z,34.78
2018-08-16T07:37:32.431Z,35.03
2018-08-16T07:40:02.782Z,35.52
2018-08-16T07:42:33.242Z,34.69
2018-08-16T07:45:03.755Z,35.74
2018-08-16T07:47:34.423Z,36.12
2018-08-16T07:50:07.772Z,36.45
2018-08-16T07:52:38.690Z,36.24
2018-08-16T07:55:09.673Z,36.32
2018-08-16T07:57:40.469Z,36.33
2018-08-16T08:00:16.156Z,36.62
2018-08-16T08:02:47.282Z,36.58
2018-08-16T08:05:17.710Z,37.44
2018-08-16T08:07:48.197Z,36.79
2018-08-16T08:10:18.636Z,36.95
2018-08-16T08:12:49.233Z,36.59
2018-08-16T08:15:19.550Z,37.51
2018-08-16T08:17:49.933Z,37.10
2018-08-16T08:20:20.393Z,37.53
2018-08-16T08:22:50.679Z,37.45
2018-08-16T08:25:21.215Z,38.04
2018-08-16T08:27:51.494Z,39.18
2018-08-16T08:30:21.889Z,39.16
2018-08-16T08:32:52.264Z,38.78
2018-08-16T08:35:22.533Z,38.45
2018-08-16T08:38:02.481Z,38.15
2018-08-16T08:40:32.843Z,38.04
2018-08-16T08:43:03.250Z,38.47
2018-08-16T08:45:33.637Z,39.64
2018-08-16T08:48:03.940Z,39.28
2018-08-16T08:50:34.501Z,39.44
2018-08-16T08:53:21.241Z,39.91
2018-08-16T08:56:07.903Z,40.04
2018-08-16T08:58:51.700Z,40.54
2018-08-16T09:01:22.257Z,38.72
2018-08-16T09:03:52.662Z,39.01
2018-08-16T09:06:22.981Z,39.80
2018-08-16T09:08:53.233Z,40.59
2018-08-16T09:11:39.765Z,39.58
2018-08-16T09:14:26.424Z,38.64
2018-08-16T09:16:56.852Z,38.78
2018-08-16T09:19:27.182Z,40.14
2018-08-16T09:21:57.661Z,39.72
2018-08-16T09:24:28.005Z,39.04
2018-08-16T09:26:58.591Z,38.45
2018-08-16T09:30:43.761Z,38.48
2018-08-16T09:33:30.537Z,38.49
2018-08-16T09:36:00.857Z,39.82
2018-08-16T09:38:31.337Z,39.87
2018-08-16T09:41:01.727Z,39.85
2018-08-16T09:43:32.190Z,39.10
2018-08-16T09:48:13.737Z,38.54
2018-08-16T09:50:44.397Z,37.59
2018-08-16T09:53:14.666Z,39.04
2018-08-16T09:55:45.062Z,38.98
2018-08-16T09:58:15.387Z,38.90
2018-08-16T10:00:50.646Z,40.08
2018-08-16T10:03:21.236Z,37.67
2018-08-16T10:05:51.549Z,38.44
2018-08-16T10:08:22.145Z,40.32
2018-08-16T10:10:52.489Z,38.55
2018-08-16T10:13:22.820Z,38.22
2018-08-16T10:15:53.137Z,40.35
2018-08-16T10:18:23.512Z,39.90
2018-08-16T10:20:53.915Z,39.24
2018-08-16T10:23:24.277Z,39.89
2018-08-16T10:25:54.525Z,39.75
2018-08-16T10:28:24.909Z,39.49
2018-08-16T10:30:55.274Z,40.47
2018-08-16T10:33:25.637Z,40.30
2018-08-16T10:35:55.953Z,39.86
2018-08-16T10:38:26.458Z,40.73
2018-08-16T10:40:56.757Z,41.08
2018-08-16T10:43:27.203Z,41.83
2018-08-16T10:45:57.553Z,41.10
2018-08-16T10:48:27.936Z,42.50
2018-08-16T10:50:58.233Z,40.76
2018-08-16T10:53:28.993Z,39.09
2018-08-16T10:56:00.237Z,38.43
2018-08-16T10:58:31.005Z,38.02
2018-08-16T11:01:01.489Z,38.02
2018-08-16T11:03:32.175Z,38.14
2018-08-16T11:06:02.686Z,38.10
2018-08-16T11:08:33.100Z,37.46
2018-08-16T11:11:03.445Z,38.15
2018-08-16T11:13:34.098Z,38.60
2018-08-16T11:16:04.474Z,38.73
2018-08-16T11:18:34.846Z,38.49
2018-08-16T11:21:05.225Z,38.54
2018-08-16T11:23:35.669Z,38.34
2018-08-16T11:26:06.094Z,38.28
2018-08-16T11:28:36.384Z,37.71
2018-08-16T11:31:06.809Z,37.52
2018-08-16T11:33:37.093Z,38.78
2018-08-16T11:36:07.557Z,39.91
2018-08-16T11:38:37.938Z,40.25
2018-08-16T11:41:08.580Z,40.60
2018-08-16T11:43:38.837Z,40.03
2018-08-16T11:46:09.332Z,37.63
2018-08-16T11:48:39.616Z,37.68
2018-08-16T11:51:10.137Z,38.78
2018-08-16T11:53:40.384Z,39.55
2018-08-16T11:56:10.784Z,40.29
2018-08-16T11:58:41.142Z,39.14
2018-08-16T12:01:11.567Z,40.07
2018-08-16T12:03:41.873Z,40.23
2018-08-16T12:06:12.431Z,40.82
2018-08-16T12:08:42.714Z,39.91
2018-08-16T12:11:13.293Z,39.64
2018-08-16T12:13:43.601Z,39.18
2018-08-16T12:16:14.112Z,38.73
2018-08-16T12:18:44.438Z,38.10
2018-08-16T12:21:14.957Z,38.45
2018-08-16T12:23:45.281Z,38.64
2018-08-16T12:26:15.655Z,40.38
2018-08-16T12:28:45.982Z,42.02
2018-08-16T12:31:16.530Z,43.07
2018-08-16T12:33:46.799Z,41.75
2018-08-16T12:36:17.162Z,40.18
2018-08-16T12:38:47.445Z,39.57
2018-08-16T12:41:17.837Z,39.01
2018-08-16T12:43:48.231Z,38.38
2018-08-16T12:46:18.794Z,38.06
2018-08-16T12:48:49.138Z,38.14
2018-08-16T12:51:20.021Z,39.14
2018-08-16T12:53:50.395Z,39.11
2018-08-16T12:56:20.905Z,39.08
2018-08-16T12:58:51.251Z,38.64
2018-08-16T13:01:21.625Z,38.47
2018-08-16T13:03:52.462Z,38.26
2018-08-16T13:06:22.756Z,38.02
2018-08-16T13:08:53.298Z,38.36
2018-08-16T13:11:23.698Z,38.29
2018-08-16T13:13:54.265Z,37.95
2018-08-16T13:16:24.650Z,37.81
2018-08-16T13:18:55.254Z,37.78
2018-08-16T13:21:25.594Z,38.01
2018-08-16T13:23:56.037Z,38.10
2018-08-16T13:26:26.355Z,38.15
2018-08-16T13:28:56.629Z,38.40
2018-08-16T13:31:27.012Z,38.72
2018-08-16T13:33:57.452Z,39.08
2018-08-16T13:36:27.781Z,38.30
2018-08-16T13:38:58.089Z,38.98
2018-08-16T13:41:28.562Z,38.34
2018-08-16T13:43:58.869Z,38.21
2018-08-16T13:46:29.429Z,38.06
2018-08-16T13:48:59.785Z,37.55
2018-08-16T13:51:30.251Z,37.22
2018-08-16T13:54:00.593Z,37.20
2018-08-16T13:56:31.125Z,37.42
2018-08-16T13:59:01.519Z,37.60
2018-08-16T14:01:32.012Z,38.42
2018-08-16T14:04:02.333Z,38.58
2018-08-16T14:06:32.664Z,39.12
2018-08-16T14:09:03.077Z,38.44
2018-08-16T14:11:33.762Z,39.00
2018-08-16T14:14:04.329Z,40.18
2018-08-16T14:16:34.965Z,40.88
2018-08-16T14:19:05.825Z,41.31
2018-08-16T14:21:36.255Z,40.07
2018-08-16T14:24:06.857Z,40.11
2018-08-16T14:26:37.271Z,40.10
2018-08-16T14:29:07.634Z,39.65
2018-08-16T14:31:38.026Z,38.74
2018-08-16T14:34:08.353Z,38.38
2018-08-16T14:36:38.928Z,37.67
2018-08-16T14:39:11.887Z,37.54
2018-08-16T14:41:42.763Z,37.24
2018-08-16T14:44:13.139Z,37.00
2018-08-16T14:46:43.718Z,37.17
2018-08-16T14:49:14.082Z,36.87
2018-08-16T14:51:44.406Z,37.47
2018-08-16T14:54:15.008Z,38.56
2018-08-16T14:56:45.357Z,38.47
2018-08-16T14:59:15.798Z,37.99
2018-08-16T15:01:46.135Z,38.51
2018-08-16T15:04:16.433Z,38.08
2018-08-16T15:06:46.853Z,37.94
2018-08-16T15:09:17.621Z,38.19
2018-08-16T15:11:48.003Z,38.39
2018-08-16T15:14:18.253Z,38.59
2018-08-16T15:16:48.829Z,37.97
2018-08-16T15:19:20.458Z,38.22
2018-08-16T15:21:50.846Z,38.68
2018-08-16T15:24:22.041Z,38.67
2018-08-16T15:26:52.821Z,38.56
2018-08-16T15:29:23.436Z,38.07
2018-08-16T15:31:54.101Z,38.20
2018-08-16T15:34:24.584Z,37.91
2018-08-16T15:36:55.400Z,37.52
2018-08-16T15:39:26.102Z,38.08
2018-08-16T15:41:56.958Z,38.02
2018-08-16T15:44:27.573Z,37.82
2018-08-16T15:46:58.429Z,37.91
2018-08-16T15:49:29.099Z,38.00
2018-08-16T15:52:00.047Z,37.96
2018-08-16T15:54:30.700Z,37.92
2018-08-16T15:57:01.614Z,37.69
2018-08-16T15:59:32.245Z,37.59
2018-08-16T16:02:02.812Z,37.66
2018-08-16T16:04:33.481Z,37.79
2018-08-16T16:07:04.249Z,37.90
2018-08-16T16:09:34.945Z,37.57
2018-08-16T16:12:05.613Z,37.72
2018-08-16T16:14:36.256Z,37.69
2018-08-16T16:17:06.937Z,37.34
2018-08-16T16:19:38.062Z,37.12
2018-08-16T16:22:08.764Z,36.94
2018-08-16T16:24:39.401Z,36.86
2018-08-16T16:27:10.181Z,36.38
2018-08-16T16:29:40.684Z,36.40
2018-08-16T16:32:11.545Z,36.17
2018-08-16T16:34:42.128Z,36.21
2018-08-16T16:37:12.997Z,35.96
2018-08-16T16:39:43.594Z,35.81
2018-08-16T16:42:14.386Z,35.40
2018-08-16T16:44:44.857Z,35.54
2018-08-16T16:47:15.527Z,35.50
2018-08-16T16:49:45.858Z,35.41
2018-08-16T16:52:16.410Z,35.53
2018-08-16T16:54:46.729Z,35.46
2018-08-16T16:57:17.586Z,34.67
2018-08-16T16:59:47.933Z,34.99
2018-08-16T17:02:18.378Z,34.71
2018-08-16T17:04:48.711Z,34.91
2018-08-16T17:07:19.464Z,34.78
2018-08-16T17:09:50.083Z,34.69
2018-08-16T17:12:20.660Z,34.76
2018-08-16T17:14:51.094Z,34.95
2018-08-16T17:17:21.785Z,34.64
2018-08-16T17:19:52.478Z,34.51
2018-08-16T17:22:23.224Z,34.57
2018-08-16T17:24:53.938Z,34.35
2018-08-16T17:27:24.765Z,34.60
2018-08-16T17:29:55.322Z,34.35
2018-08-16T17:32:26.298Z,34.29
2018-08-16T17:34:56.964Z,34.21
2018-08-16T17:37:27.710Z,33.64
2018-08-16T17:39:58.413Z,33.03
2018-08-16T17:42:29.081Z,32.90
2018-08-16T17:44:59.755Z,32.86
2018-08-16T17:47:30.396Z,32.79
2018-08-16T17:50:01.212Z,33.08
2018-08-16T17:52:32.105Z,33.15
2018-08-16T17:55:02.834Z,33.43
2018-08-16T17:57:33.657Z,33.78
2018-08-16T18:00:04.453Z,33.68
2018-08-16T18:02:35.078Z,33.25
2018-08-16T18:05:05.845Z,33.40
2018-08-16T18:07:36.781Z,33.44
2018-08-16T18:10:08.974Z,33.69
2018-08-16T18:12:39.800Z,33.77
2018-08-16T18:15:12.556Z,34.04
2018-08-16T18:17:43.282Z,33.90
2018-08-16T18:20:13.830Z,33.94
2018-08-16T18:22:44.590Z,33.48
2018-08-16T18:25:15.234Z,33.28
2018-08-16T18:27:45.942Z,33.35
2018-08-16T18:30:16.585Z,33.11
2018-08-16T18:32:47.344Z,33.06
2018-08-16T18:35:17.995Z,33.00
2018-08-16T18:37:48.609Z,33.38
2018-08-16T18:40:19.366Z,33.25
2018-08-16T18:42:50.038Z,32.86
2018-08-16T18:45:20.381Z,32.56
2018-08-16T18:47:51.044Z,31.95
2018-08-16T18:50:21.350Z,32.15
2018-08-16T18:52:51.708Z,32.32
2018-08-16T18:55:22.372Z,32.40
2018-08-16T18:57:52.697Z,32.39
2018-08-16T19:00:23.069Z,32.75
2018-08-16T19:02:53.428Z,32.74
2018-08-16T19:05:23.783Z,32.77
2018-08-16T19:07:54.178Z,33.17
2018-08-16T19:10:24.474Z,33.17
2018-08-16T19:12:54.846Z,33.31
2018-08-16T19:15:25.161Z,33.31
2018-08-16T19:17:55.672Z,33.13
2018-08-16T19:20:26.407Z,32.86
2018-08-16T19:22:56.900Z,32.82
2018-08-16T19:25:27.513Z,32.62
2018-08-16T19:27:57.995Z,32.49
2018-08-16T19:30:28.268Z,32.38
2018-08-16T19:32:58.708Z,32.29
2018-08-16T19:35:29.027Z,32.26
2018-08-16T19:37:59.434Z,31.86
2018-08-16T19:40:29.876Z,31.78
2018-08-16T19:43:00.099Z,31.85
2018-08-16T19:45:30.581Z,31.12
2018-08-16T19:48:00.977Z,30.59
2018-08-16T19:50:31.442Z,30.25
2018-08-16T19:53:01.817Z,29.61
2018-08-16T19:55:32.067Z,29.16
2018-08-16T19:58:02.532Z,29.58
2018-08-16T20:00:33.117Z,29.30
2018-08-16T20:03:03.644Z,28.85
2018-08-16T20:05:33.848Z,28.94
2018-08-16T20:08:04.338Z,29.07
2018-08-16T20:10:34.956Z,29.24
2018-08-16T20:13:05.752Z,29.24
2018-08-16T20:15:36.389Z,28.72
2018-08-16T20:18:07.217Z,27.98
2018-08-16T20:20:38.053Z,27.61
2018-08-16T20:23:08.597Z,27.42
2018-08-16T20:25:39.249Z,27.93
2018-08-16T20:28:09.921Z,27.96
2018-08-16T20:30:40.690Z,28.07
2018-08-16T20:33:11.608Z,28.03
2018-08-16T20:35:42.225Z,28.12
2018-08-16T20:38:12.967Z,27.85
2018-08-16T20:40:43.729Z,28.03
2018-08-16T20:43:14.560Z,28.42
2018-08-16T20:45:45.392Z,29.01
2018-08-16T20:48:16.173Z,28.80
2018-08-16T20:50:46.894Z,28.89
2018-08-16T20:53:17.837Z,28.25
2018-08-16T20:55:48.465Z,28.55
2018-08-16T20:58:19.372Z,27.85
2018-08-16T21:00:50.150Z,27.73
2018-08-16T21:03:20.952Z,27.64
2018-08-16T21:05:51.412Z,26.90
2018-08-16T21:08:22.080Z,26.92
2018-08-16T21:10:52.642Z,27.00
2018-08-16T21:13:23.233Z,27.11
2018-08-16T21:15:53.748Z,26.80
2018-08-16T21:18:24.412Z,26.83
2018-08-16T21:20:54.989Z,26.44
2018-08-16T21:23:25.665Z,26.01
2018-08-16T21:25:56.358Z,25.68
2018-08-16T21:28:27.074Z,25.70
2018-08-16T21:30:57.704Z,25.57
2018-08-16T21:33:28.441Z,25.48
2018-08-16T21:35:59.032Z,25.67
2018-08-16T21:38:29.704Z,25.44
2018-08-16T21:41:00.341Z,25.75
2018-08-16T21:43:31.012Z,25.71
2018-08-16T21:46:01.755Z,25.73
2018-08-16T21:48:32.805Z,25.57
